Terminal Aerodrome Forecast
Issued by NWS

Home | Current Version | Previous Version | Text Only | Print | Product List | Glossary Off
Versions: 1 2 3 4 5 6 7 8 9 10 11 12 13 14 15 16 17 18 19

051
FTUS43 KMPX 271906 AAA
TAFAXN
TAF AMD
KAXN 271906Z 2719/2818 33018G26KT P6SM SCT025
     FM272300 34012KT P6SM SCT025
     FM280600 36007KT P6SM SKC=

USA.gov is the U.S. government's official web portal to all federal, state and local government web resources and services.